Etusivu
METAR-TAF:

METAR-TAF

Lentoasemat :

Vannes, Ranska

Leveyspiiri: 47-43-19N, Pituuspiiri: 2-43-41W, korkeus merenpinnasta: 130 m

Tämänhetkinen sää

Tämä raportti tehtiin 33 minuuttia sitten, kello 03.00 UTC
Tuuli 4 kn pohjoisen/luoteesta
Lämpötila 6°C
Kosteus 100%
Ilmanpaine 1027 hPa
Näkyvyys 10 km tai enemmän
Muutamia pilviä 3300 ft:n korkeudessa
Pilvistä 4200 ft:n korkeudessa

METAR: LFRV 190300Z AUTO 33004KT 9999 FEW033 OVC042 06/06 Q1027

Aika: 04:33 (03:33 UTC)


TAF: puuttuu

Säähavainnot ja -ennusteet yli 4000 lentoasemalta (METAR- ja TAF-raportit).

Käytössä olevat sääasemat on merkitty karttaan keltaisilla ja punaisilla pisteillä.

Aseta hiiri pisteen päälle nähdäksesi sääaseman nimen.

Klikkaa sitten nähdäksesi säähavainnot ja -ennusteet.

Kartan vaihtaminen: klikkaa mustalla rastilla varustettuja vihreitä pisteitä, niin voit zoomata sisään; viivalla varustettua vihreää pistettä, niin voit zoomata ulos tai vihreitä nuolia, niin pääset viereisille kartoille.


METAR-TAF: